createdAt,value
2023-02-18T00:01:04.641Z,7.20
2023-02-18T00:03:31.393Z,7.20
2023-02-18T00:05:58.107Z,7.30
2023-02-18T00:08:24.761Z,7.30
2023-02-18T00:10:51.712Z,7.20
2023-02-18T00:13:18.317Z,7.10
2023-02-18T00:15:44.997Z,7.00
2023-02-18T00:18:11.649Z,7.00
2023-02-18T00:20:39.452Z,7.00
2023-02-18T00:23:06.167Z,7.00
2023-02-18T00:25:32.812Z,7.00
2023-02-18T00:27:59.390Z,6.90
2023-02-18T00:30:26.082Z,6.90
2023-02-18T00:32:52.947Z,6.80
2023-02-18T00:35:19.580Z,6.80
2023-02-18T00:37:46.158Z,6.90
2023-02-18T00:40:13.063Z,6.90
2023-02-18T00:42:39.697Z,6.90
2023-02-18T00:45:06.696Z,6.90
2023-02-18T00:47:33.249Z,7.00
2023-02-18T00:49:59.929Z,7.00
2023-02-18T00:52:26.553Z,7.00
2023-02-18T00:54:53.256Z,7.00
2023-02-18T00:57:19.856Z,7.00
2023-02-18T00:59:47.131Z,7.00
2023-02-18T01:02:13.821Z,7.00
2023-02-18T01:04:40.502Z,7.00
2023-02-18T01:07:07.106Z,7.00
2023-02-18T01:09:33.755Z,7.00
2023-02-18T01:12:00.372Z,7.00
2023-02-18T01:14:27.025Z,6.90
2023-02-18T01:16:53.663Z,6.90
2023-02-18T01:19:20.440Z,6.80
2023-02-18T01:21:47.204Z,6.80
2023-02-18T01:24:13.801Z,6.90
2023-02-18T01:26:40.414Z,6.80
2023-02-18T01:29:07.256Z,6.90
2023-02-18T01:31:34.127Z,6.80
2023-02-18T01:34:00.862Z,6.80
2023-02-18T01:36:27.469Z,6.70
2023-02-18T01:38:54.049Z,6.80
2023-02-18T01:41:20.982Z,6.80
2023-02-18T01:43:47.579Z,6.80
2023-02-18T01:46:20.395Z,6.80
2023-02-18T01:48:57.021Z,6.70
2023-02-18T01:51:39.533Z,6.70
2023-02-18T01:54:21.216Z,6.70
2023-02-18T01:56:59.820Z,6.70
2023-02-18T01:59:29.351Z,6.70
2023-02-18T02:01:56.644Z,6.60
2023-02-18T02:04:23.628Z,6.60
2023-02-18T02:06:50.415Z,6.60
2023-02-18T02:09:19.979Z,6.70
2023-02-18T02:11:57.533Z,6.60
2023-02-18T02:14:35.871Z,6.60
2023-02-18T02:17:08.346Z,6.60
2023-02-18T02:20:13.622Z,6.50
2023-02-18T02:22:52.306Z,6.50
2023-02-18T02:25:43.262Z,6.50
2023-02-18T02:28:44.279Z,6.60
2023-02-18T02:31:29.360Z,6.60
2023-02-18T02:34:34.404Z,6.60
2023-02-18T02:37:16.110Z,6.60
2023-02-18T02:39:57.318Z,6.60
2023-02-18T02:42:46.503Z,6.60
2023-02-18T02:45:23.863Z,6.50
2023-02-18T02:48:15.100Z,6.50
2023-02-18T02:51:03.116Z,6.50
2023-02-18T02:53:33.656Z,6.50
2023-02-18T02:56:00.292Z,6.40
2023-02-18T02:58:27.136Z,6.40
2023-02-18T03:00:59.484Z,6.40
2023-02-18T03:03:45.180Z,6.40
2023-02-18T03:06:14.695Z,6.40
2023-02-18T03:09:03.130Z,6.40
2023-02-18T03:11:35.645Z,6.40
2023-02-18T03:14:11.059Z,6.40
2023-02-18T03:17:02.805Z,6.40
2023-02-18T03:19:37.679Z,6.40
2023-02-18T03:22:12.804Z,6.50
2023-02-18T03:24:42.562Z,6.50
2023-02-18T03:27:21.558Z,6.50
2023-02-18T03:29:56.976Z,6.50
2023-02-18T03:32:25.430Z,6.50
2023-02-18T03:34:58.404Z,6.50
2023-02-18T03:37:25.125Z,6.50
2023-02-18T03:39:57.098Z,6.40
2023-02-18T03:42:29.893Z,6.40
2023-02-18T03:44:56.732Z,6.50
2023-02-18T03:47:24.415Z,6.50
2023-02-18T03:49:51.062Z,6.50
2023-02-18T03:52:17.952Z,6.60
2023-02-18T03:54:44.693Z,6.60
2023-02-18T03:57:11.282Z,6.60
2023-02-18T03:59:37.957Z,6.70
2023-02-18T04:02:04.908Z,6.70
2023-02-18T04:04:31.553Z,6.70
2023-02-18T04:06:58.223Z,6.70
2023-02-18T04:09:24.902Z,6.70
2023-02-18T04:11:51.471Z,6.60
2023-02-18T04:14:18.045Z,6.60
2023-02-18T04:16:44.769Z,6.60
2023-02-18T04:19:11.401Z,6.70
2023-02-18T04:21:38.092Z,6.70
2023-02-18T04:24:04.844Z,6.70
2023-02-18T04:26:31.509Z,6.70
2023-02-18T04:28:58.422Z,6.70
2023-02-18T04:31:25.099Z,6.70
2023-02-18T04:33:51.753Z,6.70
2023-02-18T04:36:18.442Z,6.70
2023-02-18T04:38:45.782Z,6.70
2023-02-18T04:41:12.817Z,6.70
2023-02-18T04:43:39.582Z,6.70
2023-02-18T04:46:06.536Z,6.60
2023-02-18T04:48:35.117Z,6.60
2023-02-18T04:51:02.248Z,6.50
2023-02-18T04:53:28.812Z,6.50
2023-02-18T04:55:55.498Z,6.50
2023-02-18T04:58:22.506Z,6.50
2023-02-18T05:00:49.277Z,6.50
2023-02-18T05:03:15.874Z,6.60
2023-02-18T05:05:42.484Z,6.50
2023-02-18T05:08:09.116Z,6.50
2023-02-18T05:10:37.005Z,6.50
2023-02-18T05:13:03.825Z,6.60
2023-02-18T05:15:30.504Z,6.50
2023-02-18T05:17:57.107Z,6.50
2023-02-18T05:20:23.728Z,6.50
2023-02-18T05:22:50.304Z,6.40
2023-02-18T05:25:16.980Z,6.40
2023-02-18T05:27:43.574Z,6.40
2023-02-18T05:30:10.654Z,6.30
2023-02-18T05:32:37.387Z,6.30
2023-02-18T05:35:04.292Z,6.40
2023-02-18T05:37:30.914Z,6.30
2023-02-18T05:39:57.539Z,6.30
2023-02-18T05:42:24.114Z,6.30
2023-02-18T05:44:50.706Z,6.30
2023-02-18T05:47:17.516Z,6.30
2023-02-18T05:49:44.736Z,6.30
2023-02-18T05:52:12.500Z,6.30
2023-02-18T05:54:39.610Z,6.30
2023-02-18T05:57:06.386Z,6.30
2023-02-18T05:59:33.185Z,6.40
2023-02-18T06:02:00.507Z,6.40
2023-02-18T06:04:27.122Z,6.40
2023-02-18T06:06:54.628Z,6.40
2023-02-18T06:09:21.302Z,6.40
2023-02-18T06:11:47.935Z,6.40
2023-02-18T06:14:14.566Z,6.40
2023-02-18T06:16:41.374Z,6.50
2023-02-18T06:19:08.075Z,6.50
2023-02-18T06:21:34.974Z,6.50
2023-02-18T06:24:01.605Z,6.50
2023-02-18T06:26:28.184Z,6.60
2023-02-18T06:28:54.944Z,6.60
2023-02-18T06:31:21.767Z,6.50
2023-02-18T06:33:48.557Z,6.50
2023-02-18T06:36:15.400Z,6.50
2023-02-18T06:38:44.500Z,6.50
2023-02-18T06:41:13.029Z,6.50
2023-02-18T06:43:40.246Z,6.50
2023-02-18T06:46:07.668Z,6.50
2023-02-18T06:48:34.757Z,6.50
2023-02-18T06:51:01.431Z,6.60
2023-02-18T06:53:28.225Z,6.50
2023-02-18T06:55:54.857Z,6.50
2023-02-18T06:58:23.430Z,6.50
2023-02-18T07:00:51.286Z,6.50
2023-02-18T07:03:18.818Z,6.50
2023-02-18T07:05:46.464Z,6.50
2023-02-18T07:08:13.408Z,6.40
2023-02-18T07:10:45.868Z,6.50
2023-02-18T07:13:12.519Z,6.50
2023-02-18T07:15:39.383Z,6.50
2023-02-18T07:18:06.238Z,6.50
2023-02-18T07:20:32.964Z,6.50
2023-02-18T07:22:59.731Z,6.50
2023-02-18T07:25:26.427Z,6.50
2023-02-18T07:27:53.293Z,6.50
2023-02-18T07:30:20.678Z,6.50
2023-02-18T07:32:47.380Z,6.60
2023-02-18T07:35:16.087Z,6.50
2023-02-18T07:37:47.421Z,6.60
2023-02-18T07:40:17.105Z,6.60
2023-02-18T07:42:43.726Z,6.70
2023-02-18T07:45:11.453Z,6.70
2023-02-18T07:47:38.278Z,6.70
2023-02-18T07:50:05.992Z,6.80
2023-02-18T07:52:32.681Z,6.80
2023-02-18T07:54:59.361Z,6.80
2023-02-18T07:57:25.951Z,6.90
2023-02-18T07:59:52.597Z,6.90
2023-02-18T08:02:22.553Z,7.00
2023-02-18T08:04:49.367Z,7.00
2023-02-18T08:07:17.512Z,7.00
2023-02-18T08:09:44.254Z,7.10
2023-02-18T08:12:10.915Z,7.10
2023-02-18T08:14:41.629Z,7.10
2023-02-18T08:17:08.278Z,7.10
2023-02-18T08:19:34.998Z,7.20
2023-02-18T08:22:02.988Z,7.20
2023-02-18T08:24:29.665Z,7.20
2023-02-18T08:27:00.877Z,7.20
2023-02-18T08:29:29.244Z,7.20
2023-02-18T08:31:57.843Z,7.30
2023-02-18T08:34:24.589Z,7.40
2023-02-18T08:36:51.300Z,7.50
2023-02-18T08:39:17.949Z,7.50
2023-02-18T08:41:44.541Z,7.50
2023-02-18T08:44:11.246Z,7.50
2023-02-18T08:46:37.898Z,7.50
2023-02-18T08:49:05.430Z,7.60
2023-02-18T08:51:32.169Z,7.60
2023-02-18T08:53:59.192Z,7.70
2023-02-18T08:56:25.990Z,7.70
2023-02-18T08:58:52.636Z,7.80
2023-02-18T09:01:20.745Z,7.80
2023-02-18T09:03:50.369Z,7.90
2023-02-18T09:06:17.069Z,8.00
2023-02-18T09:08:43.838Z,8.10
2023-02-18T09:11:11.545Z,8.10
2023-02-18T09:13:38.589Z,8.10
2023-02-18T09:16:12.190Z,8.90
2023-02-18T09:18:38.997Z,9.50
2023-02-18T09:21:08.585Z,9.30
2023-02-18T09:23:36.161Z,9.30
2023-02-18T09:26:12.784Z,9.70
2023-02-18T09:28:39.971Z,9.50
2023-02-18T09:31:16.373Z,9.40
2023-02-18T09:33:50.674Z,9.40
2023-02-18T09:36:18.658Z,9.30
2023-02-18T09:38:45.445Z,9.30
2023-02-18T09:41:37.095Z,9.30
2023-02-18T09:44:15.435Z,9.40
2023-02-18T09:47:05.062Z,9.40
2023-02-18T09:49:52.424Z,9.50
2023-02-18T09:52:21.375Z,9.50
2023-02-18T09:54:49.952Z,9.60
2023-02-18T09:57:34.987Z,9.70
2023-02-18T10:00:06.133Z,9.80
2023-02-18T10:02:34.115Z,9.80
2023-02-18T10:05:00.854Z,9.90
2023-02-18T10:07:33.642Z,9.90
2023-02-18T10:10:11.562Z,10.00
2023-02-18T10:12:38.713Z,10.10
2023-02-18T10:15:11.845Z,10.10
2023-02-18T10:17:38.828Z,10.20
2023-02-18T10:20:08.379Z,10.30
2023-02-18T10:22:37.549Z,10.40
2023-02-18T10:25:07.242Z,10.50
2023-02-18T10:27:40.806Z,10.50
2023-02-18T10:30:32.957Z,10.60
2023-02-18T10:33:26.743Z,10.60
2023-02-18T10:36:15.581Z,10.70
2023-02-18T10:39:16.077Z,10.80
2023-02-18T10:41:50.439Z,10.90
2023-02-18T10:44:31.225Z,11.00
2023-02-18T10:47:19.175Z,11.10
2023-02-18T10:49:59.285Z,11.20
2023-02-18T10:52:30.959Z,11.20
2023-02-18T10:55:09.296Z,11.30
2023-02-18T10:57:47.760Z,11.40
2023-02-18T11:00:17.826Z,11.50
2023-02-18T11:02:44.988Z,11.50
2023-02-18T11:05:20.633Z,11.50
2023-02-18T11:07:57.932Z,11.60
2023-02-18T11:10:29.366Z,11.60
2023-02-18T11:12:59.123Z,11.60
2023-02-18T11:15:27.854Z,11.70
2023-02-18T11:17:57.243Z,11.70
2023-02-18T11:20:31.967Z,11.80
2023-02-18T11:23:10.029Z,11.90
2023-02-18T11:25:41.324Z,12.00
2023-02-18T11:28:39.751Z,12.00
2023-02-18T11:31:06.767Z,12.00
2023-02-18T11:33:33.454Z,12.10
2023-02-18T11:36:13.282Z,12.20
2023-02-18T11:38:59.449Z,12.20
2023-02-18T11:41:47.832Z,12.30
2023-02-18T11:44:32.525Z,12.40
2023-02-18T11:47:14.564Z,12.50
2023-02-18T11:49:43.388Z,12.50
2023-02-18T11:52:25.959Z,12.60
2023-02-18T11:55:02.829Z,12.70
2023-02-18T11:57:30.452Z,12.80
2023-02-18T11:59:57.314Z,12.80
2023-02-18T12:02:29.755Z,12.80
2023-02-18T12:05:26.864Z,12.90
2023-02-18T12:08:27.655Z,13.00
2023-02-18T12:11:01.288Z,13.00
2023-02-18T12:13:38.130Z,13.10
2023-02-18T12:16:18.492Z,13.20
2023-02-18T12:19:02.794Z,13.20
2023-02-18T12:21:39.189Z,13.20
2023-02-18T12:24:17.775Z,13.30
2023-02-18T12:27:05.634Z,13.40
2023-02-18T12:30:09.678Z,13.40
2023-02-18T12:33:13.221Z,13.50
2023-02-18T12:36:01.351Z,13.50
2023-02-18T12:38:52.661Z,13.50
2023-02-18T12:41:48.649Z,13.60
2023-02-18T12:44:36.786Z,13.60
2023-02-18T12:47:03.388Z,13.70
2023-02-18T12:49:56.941Z,13.70
2023-02-18T12:52:41.600Z,13.80
2023-02-18T12:55:38.624Z,13.80
2023-02-18T12:58:24.732Z,13.80
2023-02-18T13:01:33.714Z,13.80
2023-02-18T13:04:06.551Z,13.90
2023-02-18T13:06:54.494Z,13.90
2023-02-18T13:09:53.096Z,14.00
2023-02-18T13:12:48.229Z,14.00
2023-02-18T13:15:23.606Z,14.00
2023-02-18T13:17:51.320Z,14.00
2023-02-18T13:20:26.112Z,14.10
2023-02-18T13:22:53.294Z,14.10
2023-02-18T13:25:21.200Z,14.10
2023-02-18T13:28:23.453Z,14.20
2023-02-18T13:31:20.731Z,14.30
2023-02-18T13:33:58.554Z,14.30
2023-02-18T13:36:46.944Z,14.30
2023-02-18T13:39:19.927Z,14.30
2023-02-18T13:41:49.720Z,14.30
2023-02-18T13:44:22.518Z,14.40
2023-02-18T13:46:57.150Z,14.40
2023-02-18T13:49:27.228Z,14.40
2023-02-18T13:51:59.001Z,14.40
2023-02-18T13:54:28.560Z,14.40
2023-02-18T13:57:04.893Z,14.50
2023-02-18T13:59:45.118Z,14.50
2023-02-18T14:02:21.265Z,14.50
2023-02-18T14:04:54.536Z,14.50
2023-02-18T14:07:32.970Z,14.50
2023-02-18T14:10:01.361Z,14.50
2023-02-18T14:12:30.675Z,14.50
2023-02-18T14:14:58.665Z,14.50
2023-02-18T14:17:31.986Z,14.50
2023-02-18T14:20:01.633Z,14.50
2023-02-18T14:22:33.814Z,14.60
2023-02-18T14:25:31.177Z,14.50
2023-02-18T14:28:04.300Z,14.60
2023-02-18T14:30:42.154Z,14.70
2023-02-18T14:33:15.671Z,14.70
2023-02-18T14:36:15.196Z,14.70
2023-02-18T14:39:09.167Z,14.70
2023-02-18T14:41:42.725Z,14.80
2023-02-18T14:44:33.964Z,14.80
2023-02-18T14:47:37.036Z,14.80
2023-02-18T14:50:10.366Z,14.80
2023-02-18T14:52:44.052Z,14.80
2023-02-18T14:55:25.003Z,14.70
2023-02-18T14:57:59.926Z,14.70
2023-02-18T15:00:31.978Z,14.70
2023-02-18T15:03:00.987Z,14.70
2023-02-18T15:05:31.196Z,14.70
2023-02-18T15:08:03.666Z,14.70
2023-02-18T15:10:49.936Z,14.60
2023-02-18T15:13:29.435Z,14.60
2023-02-18T15:16:02.505Z,14.60
2023-02-18T15:18:37.228Z,14.70
2023-02-18T15:21:08.026Z,14.70
2023-02-18T15:23:40.134Z,14.60
2023-02-18T15:26:14.513Z,14.70
2023-02-18T15:29:02.385Z,14.70
2023-02-18T15:31:31.627Z,14.70
2023-02-18T15:33:59.166Z,14.70
2023-02-18T15:36:27.141Z,14.70
2023-02-18T15:38:54.251Z,14.70
2023-02-18T15:41:22.970Z,14.70
2023-02-18T15:44:06.069Z,14.70
2023-02-18T15:46:33.513Z,14.70
2023-02-18T15:49:00.904Z,14.70
2023-02-18T15:51:31.910Z,14.60
2023-02-18T15:54:02.472Z,14.60
2023-02-18T15:56:41.338Z,14.50
2023-02-18T15:59:30.503Z,14.50
2023-02-18T16:02:09.921Z,14.50
2023-02-18T16:04:42.136Z,14.50
2023-02-18T16:07:31.808Z,14.30
2023-02-18T16:10:19.947Z,14.30
2023-02-18T16:12:52.728Z,14.30
2023-02-18T16:15:29.557Z,14.30
2023-02-18T16:17:58.746Z,14.20
2023-02-18T16:20:33.228Z,14.20
2023-02-18T16:23:03.345Z,14.20
2023-02-18T16:25:48.732Z,14.10
2023-02-18T16:28:31.586Z,14.10
2023-02-18T16:30:58.698Z,14.10
2023-02-18T16:33:26.499Z,14.00
2023-02-18T16:35:53.592Z,14.00
2023-02-18T16:38:22.968Z,13.80
2023-02-18T16:40:50.576Z,13.70
2023-02-18T16:43:22.112Z,13.70
2023-02-18T16:45:51.573Z,13.60
2023-02-18T16:48:24.490Z,13.50
2023-02-18T16:50:52.580Z,13.40
2023-02-18T16:53:20.148Z,13.30
2023-02-18T16:55:47.251Z,13.20
2023-02-18T16:58:13.913Z,13.10
2023-02-18T17:00:40.989Z,13.10
2023-02-18T17:03:07.971Z,13.00
2023-02-18T17:05:39.004Z,13.00
2023-02-18T17:08:26.000Z,12.90
2023-02-18T17:10:56.126Z,12.80
2023-02-18T17:13:29.586Z,12.80
2023-02-18T17:15:58.310Z,12.80
2023-02-18T17:18:26.186Z,12.70
2023-02-18T17:20:53.663Z,12.70
2023-02-18T17:23:23.392Z,12.60
2023-02-18T17:25:51.355Z,12.50
2023-02-18T17:28:21.984Z,12.50
2023-02-18T17:30:56.393Z,12.50
2023-02-18T17:33:24.936Z,12.40
2023-02-18T17:35:51.753Z,12.40
2023-02-18T17:38:19.537Z,12.30
2023-02-18T17:40:46.440Z,12.20
2023-02-18T17:43:15.330Z,12.10
2023-02-18T17:45:53.906Z,12.10
2023-02-18T17:48:20.994Z,12.00
2023-02-18T17:50:47.737Z,11.90
2023-02-18T17:53:16.476Z,11.80
2023-02-18T17:55:44.760Z,11.70
2023-02-18T17:58:12.231Z,11.60
2023-02-18T18:00:51.799Z,11.40
2023-02-18T18:03:18.666Z,11.40
2023-02-18T18:05:49.157Z,11.20
2023-02-18T18:08:16.339Z,11.10
2023-02-18T18:10:54.979Z,11.10
2023-02-18T18:13:24.082Z,11.00
2023-02-18T18:15:51.289Z,10.90
2023-02-18T18:18:18.530Z,10.90
2023-02-18T18:20:48.103Z,10.80
2023-02-18T18:23:16.816Z,10.90
2023-02-18T18:25:46.555Z,10.90
2023-02-18T18:28:14.060Z,10.90
2023-02-18T18:30:44.002Z,10.90
2023-02-18T18:33:28.161Z,10.90
2023-02-18T18:35:56.396Z,10.80
2023-02-18T18:38:25.084Z,10.70
2023-02-18T18:40:52.610Z,10.50
2023-02-18T18:43:23.230Z,10.40
2023-02-18T18:45:50.886Z,10.40
2023-02-18T18:48:19.955Z,10.30
2023-02-18T18:50:48.016Z,10.30
2023-02-18T18:53:23.588Z,10.30
2023-02-18T18:55:51.655Z,10.30
2023-02-18T18:58:20.923Z,10.30
2023-02-18T19:00:53.180Z,10.30
2023-02-18T19:03:22.357Z,10.30
2023-02-18T19:05:50.203Z,10.30
2023-02-18T19:08:19.526Z,10.20
2023-02-18T19:10:48.965Z,10.10
2023-02-18T19:13:19.036Z,10.00
2023-02-18T19:15:46.632Z,9.90
2023-02-18T19:18:19.133Z,9.90
2023-02-18T19:20:47.303Z,10.00
2023-02-18T19:23:14.830Z,9.90
2023-02-18T19:25:42.092Z,9.80
2023-02-18T19:28:10.352Z,9.80
2023-02-18T19:30:37.236Z,9.60
2023-02-18T19:33:05.813Z,9.60
2023-02-18T19:35:34.314Z,9.60
2023-02-18T19:38:01.302Z,9.60
2023-02-18T19:40:30.563Z,9.60
2023-02-18T19:42:57.522Z,9.40
2023-02-18T19:45:24.622Z,9.30
2023-02-18T19:47:55.908Z,9.30
2023-02-18T19:50:23.184Z,9.20
2023-02-18T19:52:55.425Z,9.20
2023-02-18T19:55:24.129Z,9.00
2023-02-18T19:57:51.229Z,8.90
2023-02-18T20:00:19.550Z,8.90
2023-02-18T20:02:46.627Z,8.80
2023-02-18T20:05:14.655Z,8.90
2023-02-18T20:07:41.532Z,8.90
2023-02-18T20:10:14.687Z,8.90
2023-02-18T20:12:41.546Z,8.90
2023-02-18T20:15:08.494Z,8.90
2023-02-18T20:17:35.523Z,9.00
2023-02-18T20:20:02.140Z,9.00
2023-02-18T20:22:28.817Z,9.00
2023-02-18T20:24:55.440Z,9.00
2023-02-18T20:27:22.058Z,8.90
2023-02-18T20:29:48.770Z,8.80
2023-02-18T20:32:18.399Z,8.80
2023-02-18T20:34:45.452Z,8.80
2023-02-18T20:37:12.152Z,8.80
2023-02-18T20:39:38.841Z,8.80
2023-02-18T20:42:16.000Z,8.70
2023-02-18T20:44:43.425Z,8.60
2023-02-18T20:47:10.224Z,8.50
2023-02-18T20:49:37.028Z,8.40
2023-02-18T20:52:03.984Z,8.40
2023-02-18T20:54:30.962Z,8.30
2023-02-18T20:56:57.885Z,8.30
2023-02-18T20:59:35.145Z,8.20
2023-02-18T21:02:01.921Z,8.00
2023-02-18T21:04:29.140Z,8.10
2023-02-18T21:06:55.733Z,8.20
2023-02-18T21:09:24.184Z,8.20
2023-02-18T21:11:50.835Z,8.30
2023-02-18T21:14:17.665Z,8.30
2023-02-18T21:16:44.273Z,8.30
2023-02-18T21:19:13.774Z,8.30
2023-02-18T21:21:40.792Z,8.30
2023-02-18T21:24:07.811Z,8.30
2023-02-18T21:26:34.669Z,8.30
2023-02-18T21:29:05.360Z,8.10
2023-02-18T21:31:35.070Z,8.00
2023-02-18T21:34:02.286Z,8.00
2023-02-18T21:36:30.440Z,8.00
2023-02-18T21:39:00.561Z,8.00
2023-02-18T21:41:27.988Z,8.00
2023-02-18T21:43:54.816Z,8.00
2023-02-18T21:46:24.314Z,8.00
2023-02-18T21:49:03.172Z,8.00
2023-02-18T21:51:56.997Z,7.90
2023-02-18T21:54:29.811Z,7.90
2023-02-18T21:56:57.728Z,7.80
2023-02-18T21:59:29.073Z,7.80
2023-02-18T22:01:57.044Z,7.70
2023-02-18T22:04:25.175Z,7.60
2023-02-18T22:06:52.031Z,7.60
2023-02-18T22:09:19.051Z,7.50
2023-02-18T22:11:46.070Z,7.50
2023-02-18T22:14:14.438Z,7.50
2023-02-18T22:16:41.476Z,7.50
2023-02-18T22:19:12.490Z,7.50
2023-02-18T22:21:39.895Z,7.40
2023-02-18T22:24:07.431Z,7.30
2023-02-18T22:26:34.142Z,7.20
2023-02-18T22:29:01.572Z,7.20
2023-02-18T22:31:29.856Z,7.20
2023-02-18T22:33:58.111Z,7.20
2023-02-18T22:36:26.514Z,7.20
2023-02-18T22:38:53.367Z,7.10
2023-02-18T22:41:22.832Z,7.10
2023-02-18T22:43:54.013Z,7.20
2023-02-18T22:46:20.927Z,7.30
2023-02-18T22:48:47.700Z,7.10
2023-02-18T22:51:17.379Z,7.10
2023-02-18T22:53:44.724Z,7.00
2023-02-18T22:56:14.036Z,7.00
2023-02-18T22:58:42.403Z,7.00
2023-02-18T23:01:22.696Z,7.00
2023-02-18T23:03:50.363Z,7.00
2023-02-18T23:06:18.425Z,7.00
2023-02-18T23:08:45.178Z,7.00
2023-02-18T23:11:14.838Z,7.00
2023-02-18T23:13:42.271Z,6.90
2023-02-18T23:16:13.192Z,6.90
2023-02-18T23:18:40.421Z,6.90
2023-02-18T23:21:17.208Z,6.70
2023-02-18T23:23:55.536Z,6.70
2023-02-18T23:26:24.863Z,6.70
2023-02-18T23:28:52.594Z,6.70
2023-02-18T23:31:26.657Z,6.70
2023-02-18T23:33:56.102Z,6.60
2023-02-18T23:36:25.741Z,6.60
2023-02-18T23:39:08.026Z,6.50
2023-02-18T23:41:36.148Z,6.50
2023-02-18T23:44:07.099Z,6.30
2023-02-18T23:46:36.443Z,6.40
2023-02-18T23:49:03.902Z,6.30
2023-02-18T23:51:30.497Z,6.40
2023-02-18T23:53:57.678Z,6.40
2023-02-18T23:56:26.311Z,6.40
2023-02-18T23:59:00.210Z,6.40
